Time;durP1;ratioP1;P1;durP2;ratioP2;P2;SDS_P1;SDS_P2;PMS_P1;PMS_P2;Temp;Humidity;BMP_temperature;BMP_pressure;BME280_temperature;BME280_humidity;BME280_pressure;Samples;Min_cycle;Max_cycle;Signal;HPM_P1;HPM_P2
2022/10/29 00:01:49;;;;;;;20.13;4.25;;;13.10;99.90;;;;;;4961139;28;20095;-68
2022/10/29 00:04:15;;;;;;;24.10;4.75;;;13.00;99.90;;;;;;4933580;29;20059;-68
2022/10/29 00:06:41;;;;;;;28.60;5.28;;;13.00;99.90;;;;;;4954594;28;20110;-68
2022/10/29 00:09:06;;;;;;;22.02;4.85;;;13.00;99.90;;;;;;4936581;28;20049;-68
2022/10/29 00:11:33;;;;;;;36.63;5.25;;;13.00;99.90;;;;;;4965183;28;20046;-68
2022/10/29 00:14:00;;;;;;;24.90;5.70;;;13.00;99.90;;;;;;4973493;28;20063;-79
2022/10/29 00:16:35;;;;;;;31.40;5.20;;;13.00;99.90;;;;;;4972410;28;20050;-71
2022/10/29 00:19:00;;;;;;;23.75;4.75;;;13.00;99.90;;;;;;4971513;28;20047;-69
2022/10/29 00:21:26;;;;;;;28.55;5.63;;;13.00;99.90;;;;;;4965283;28;20051;-68
2022/10/29 00:23:52;;;;;;;27.05;4.93;;;13.00;99.90;;;;;;4951532;28;20098;-68
2022/10/29 00:26:20;;;;;;;31.60;5.47;;;13.00;99.90;;;;;;4952363;28;20412;-68
2022/10/29 00:28:46;;;;;;;42.30;5.68;;;13.00;99.90;;;;;;4951053;28;20051;-69
2022/10/29 00:31:14;;;;;;;21.25;5.32;;;13.00;99.90;;;;;;4960459;28;20046;-71
2022/10/29 00:33:41;;;;;;;35.17;6.50;;;13.00;99.90;;;;;;4951515;28;20043;-68
2022/10/29 00:36:10;;;;;;;17.38;4.05;;;13.00;99.90;;;;;;4969393;28;20046;-68
2022/10/29 00:38:36;;;;;;;29.15;5.43;;;13.00;99.90;;;;;;4968935;28;20171;-68
2022/10/29 00:41:03;;;;;;;28.25;5.78;;;13.00;99.90;;;;;;4969192;28;20121;-68
2022/10/29 00:43:29;;;;;;;19.52;5.03;;;13.00;99.90;;;;;;4969155;28;20546;-68
2022/10/29 00:46:01;;;;;;;26.38;4.88;;;13.10;99.90;;;;;;4968274;28;20179;-69
2022/10/29 00:48:33;;;;;;;19.90;4.53;;;13.10;99.90;;;;;;4954575;28;20170;-68
2022/10/29 00:51:02;;;;;;;26.90;5.47;;;13.10;99.90;;;;;;4968835;28;20051;-68
2022/10/29 00:53:32;;;;;;;25.20;5.50;;;13.10;99.90;;;;;;4967380;28;20046;-68
2022/10/29 00:55:59;;;;;;;27.75;5.65;;;13.00;99.90;;;;;;4968880;28;20067;-68
2022/10/29 00:58:25;;;;;;;36.45;5.45;;;13.00;99.90;;;;;;4968649;28;20073;-68
2022/10/29 01:00:51;;;;;;;25.08;4.95;;;13.00;99.90;;;;;;4968643;28;20129;-72
2022/10/29 01:03:17;;;;;;;24.25;5.22;;;13.00;99.90;;;;;;4968180;28;20097;-68
2022/10/29 01:05:43;;;;;;;31.80;5.47;;;13.00;99.90;;;;;;4968186;28;20156;-68
2022/10/29 01:08:10;;;;;;;31.88;5.30;;;13.00;99.90;;;;;;4968064;28;20042;-68
2022/10/29 01:10:59;;;;;;;22.63;5.55;;;12.90;99.90;;;;;;4957367;28;20047;-71
2022/10/29 01:13:28;;;;;;;24.58;6.05;;;12.90;99.90;;;;;;4950240;28;20059;-68
2022/10/29 01:16:01;;;;;;;34.70;5.13;;;12.90;99.90;;;;;;4949779;28;20680;-68
2022/10/29 01:18:53;;;;;;;22.52;5.20;;;12.90;99.90;;;;;;4968395;28;20050;-68
2022/10/29 01:21:21;;;;;;;29.75;6.05;;;12.90;99.90;;;;;;4955002;28;20121;-68
2022/10/29 01:24:25;;;;;;;33.92;4.97;;;12.80;99.90;;;;;;4967723;28;20137;-68
2022/10/29 01:27:05;;;;;;;25.50;4.57;;;12.80;99.90;;;;;;4924661;28;20459;-68
2022/10/29 01:29:43;;;;;;;19.92;4.57;;;12.80;99.90;;;;;;4967079;28;20085;-68
2022/10/29 01:32:11;;;;;;;25.45;4.80;;;12.70;99.90;;;;;;4944684;28;20047;-68
2022/10/29 01:34:42;;;;;;;24.80;4.05;;;12.70;99.90;;;;;;4937451;28;20408;-76
2022/10/29 01:37:27;;;;;;;40.67;3.78;;;12.70;99.90;;;;;;4952758;28;20105;-68
2022/10/29 01:40:06;;;;;;;22.27;3.38;;;12.70;99.90;;;;;;4941426;28;20031;-68
2022/10/29 01:42:38;;;;;;;19.42;4.50;;;12.60;99.90;;;;;;4967508;28;20098;-68
2022/10/29 01:45:15;;;;;;;18.83;4.75;;;12.60;99.90;;;;;;4968233;28;20042;-68
2022/10/29 01:47:54;;;;;;;20.90;4.50;;;12.50;99.90;;;;;;4967837;28;20053;-68
2022/10/29 01:50:22;;;;;;;;;;;12.50;99.90;;;;;;4966533;28;20141;-68
2022/10/29 01:52:49;;;;;;;11.85;3.42;;;12.50;99.90;;;;;;4952953;28;19945;-68
2022/10/29 01:55:20;;;;;;;17.70;4.40;;;12.50;99.90;;;;;;4966798;28;20093;-68
2022/10/29 01:57:45;;;;;;;35.83;4.63;;;12.40;99.90;;;;;;4967772;28;20572;-68
2022/10/29 02:00:15;;;;;;;25.73;4.50;;;12.40;99.90;;;;;;4966955;28;20173;-68
2022/10/29 02:03:00;;;;;;;34.35;4.85;;;12.40;99.90;;;;;;4967941;28;20482;-68
2022/10/29 02:05:36;;;;;;;28.35;4.72;;;12.40;99.90;;;;;;4967313;28;20555;-76
2022/10/29 02:08:26;;;;;;;24.88;5.93;;;12.40;99.90;;;;;;4966961;28;20117;-73
2022/10/29 02:10:52;;;;;;;;;;;12.40;99.90;;;;;;4948645;28;20109;-68
2022/10/29 02:13:23;;;;;;;22.27;5.43;;;12.40;99.90;;;;;;4967537;28;20206;-68
2022/10/29 02:15:51;;;;;;;83.30;5.85;;;12.50;99.90;;;;;;4967384;28;20038;-68
2022/10/29 02:18:18;;;;;;;32.72;5.00;;;12.50;99.90;;;;;;4967806;28;20425;-68
2022/10/29 02:20:45;;;;;;;125.80;4.10;;;12.50;99.90;;;;;;4966671;28;20137;-69
2022/10/29 02:23:12;;;;;;;188.18;5.88;;;12.40;99.90;;;;;;4940330;28;20058;-68
2022/10/29 02:25:37;;;;;;;123.50;4.45;;;12.40;99.90;;;;;;4949451;28;20043;-68
2022/10/29 02:28:03;;;;;;;221.27;7.05;;;12.40;99.90;;;;;;4934098;28;20061;-68
2022/10/29 02:30:29;;;;;;;31.30;5.05;;;12.40;99.90;;;;;;4949915;28;20065;-68
2022/10/29 02:32:55;;;;;;;56.28;3.63;;;12.40;99.90;;;;;;4949432;28;20058;-69
2022/10/29 02:35:20;;;;;;;142.95;4.82;;;12.30;99.90;;;;;;4949595;28;20043;-68
2022/10/29 02:37:46;;;;;;;151.82;4.15;;;12.30;99.90;;;;;;4966716;28;20066;-68
2022/10/29 02:40:12;;;;;;;156.43;4.43;;;12.30;99.90;;;;;;4934382;28;20050;-68
2022/10/29 02:42:38;;;;;;;192.60;4.07;;;12.30;99.90;;;;;;4966949;28;20046;-87
2022/10/29 02:45:04;;;;;;;158.05;3.72;;;12.30;99.90;;;;;;4967172;28;20042;-67
2022/10/29 02:47:30;;;;;;;77.85;3.00;;;12.30;99.90;;;;;;4965944;28;20045;-67
2022/10/29 02:49:55;;;;;;;162.75;4.10;;;12.20;99.90;;;;;;4966346;28;20406;-68
2022/10/29 02:52:21;;;;;;;108.70;3.55;;;12.10;99.90;;;;;;4936079;28;20069;-68
2022/10/29 02:54:47;;;;;;;66.72;2.92;;;12.10;99.90;;;;;;4966577;28;20402;-78
2022/10/29 02:57:12;;;;;;;44.50;3.17;;;12.10;99.90;;;;;;4951743;28;20069;-68
2022/10/29 02:59:38;;;;;;;72.10;2.88;;;12.10;99.90;;;;;;4933337;28;20185;-80
2022/10/29 03:02:04;;;;;;;93.03;3.65;;;12.10;99.90;;;;;;4966579;28;20113;-68
2022/10/29 03:04:30;;;;;;;71.43;3.05;;;12.10;99.90;;;;;;4965655;28;20047;-68
2022/10/29 03:06:55;;;;;;;134.82;4.00;;;12.10;99.90;;;;;;4964624;28;20038;-68
2022/10/29 03:09:21;;;;;;;119.57;4.45;;;12.20;99.90;;;;;;4944692;28;20527;-82
2022/10/29 03:11:47;;;;;;;148.52;5.25;;;12.20;99.90;;;;;;4940999;28;20125;-68
2022/10/29 03:14:13;;;;;;;114.00;4.22;;;12.20;99.90;;;;;;4966544;28;20092;-69
2022/10/29 03:16:38;;;;;;;99.88;3.60;;;12.30;99.90;;;;;;4968314;28;20130;-68
2022/10/29 03:19:04;;;;;;;101.53;3.85;;;12.30;99.90;;;;;;4952697;28;20074;-69
2022/10/29 03:21:30;;;;;;;89.75;3.38;;;12.30;99.90;;;;;;4953009;28;20046;-69
2022/10/29 03:23:56;;;;;;;99.20;3.63;;;12.30;99.90;;;;;;4971023;28;20043;-68
2022/10/29 03:26:21;;;;;;;75.22;3.42;;;12.30;99.90;;;;;;4970125;28;20591;-80
2022/10/29 03:28:47;;;;;;;96.90;3.88;;;12.30;99.90;;;;;;4970952;28;20046;-68
2022/10/29 03:31:13;;;;;;;69.88;3.42;;;12.40;99.90;;;;;;4952329;28;20050;-87
2022/10/29 03:33:38;;;;;;;44.10;2.92;;;12.40;99.90;;;;;;4970499;28;20493;-69
2022/10/29 03:36:05;;;;;;;34.25;2.88;;;12.40;99.90;;;;;;4952595;28;20581;-70
2022/10/29 03:38:32;;;;;;;42.10;3.05;;;12.40;99.90;;;;;;4970167;28;20049;-68
2022/10/29 03:40:57;;;;;;;36.03;2.53;;;12.40;99.90;;;;;;4970352;28;20721;-68
2022/10/29 03:43:24;;;;;;;24.00;2.38;;;12.40;99.90;;;;;;4969660;28;20514;-69
2022/10/29 03:45:54;;;;;;;34.10;2.42;;;12.40;99.90;;;;;;4970765;28;20101;-68
2022/10/29 03:48:21;;;;;;;15.98;2.10;;;12.40;99.90;;;;;;4952688;28;20492;-68
2022/10/29 03:50:58;;;;;;;10.18;2.20;;;12.40;99.90;;;;;;4969958;28;20038;-68
2022/10/29 03:53:25;;;;;;;11.98;2.03;;;12.40;99.90;;;;;;4969685;28;20031;-69
2022/10/29 03:55:52;;;;;;;26.88;2.38;;;12.30;99.90;;;;;;4952215;28;20121;-68
2022/10/29 03:58:18;;;;;;;23.52;2.47;;;12.30;99.90;;;;;;4969668;28;20117;-68
2022/10/29 04:00:51;;;;;;;25.42;2.50;;;12.30;99.90;;;;;;4969297;28;20574;-68
2022/10/29 04:03:17;;;;;;;31.35;2.50;;;12.30;99.90;;;;;;4964522;28;20047;-77
2022/10/29 04:05:42;;;;;;;38.88;2.40;;;12.30;99.90;;;;;;4935775;28;20051;-68
2022/10/29 04:08:08;;;;;;;32.33;2.50;;;12.30;99.90;;;;;;4969424;28;20050;-69
2022/10/29 04:10:34;;;;;;;16.92;2.00;;;12.30;99.90;;;;;;4954679;28;20051;-69
2022/10/29 04:13:00;;;;;;;33.85;2.00;;;12.30;99.90;;;;;;4971303;28;20058;-69
2022/10/29 04:15:25;;;;;;;25.33;1.70;;;12.30;99.90;;;;;;4970292;28;20101;-69
2022/10/29 04:17:51;;;;;;;35.70;1.85;;;12.30;99.90;;;;;;4951477;28;20039;-68
2022/10/29 04:20:16;;;;;;;7.60;2.00;;;12.30;99.90;;;;;;4952391;28;20050;-72
2022/10/29 04:22:42;;;;;;;25.17;1.88;;;12.30;99.90;;;;;;4951500;28;20125;-83
2022/10/29 04:25:08;;;;;;;23.80;1.83;;;12.30;99.90;;;;;;4969223;28;20074;-69
2022/10/29 04:27:34;;;;;;;15.90;2.00;;;12.20;99.90;;;;;;4951886;28;20050;-68
2022/10/29 04:29:59;;;;;;;21.13;2.08;;;12.20;99.90;;;;;;4969122;28;20030;-84
2022/10/29 04:32:26;;;;;;;27.27;2.17;;;12.20;99.90;;;;;;4951854;28;20058;-85
2022/10/29 04:34:51;;;;;;;28.08;2.53;;;12.20;99.90;;;;;;4951678;28;20054;-83
2022/10/29 04:37:17;;;;;;;25.35;2.55;;;12.20;99.90;;;;;;4969169;28;20500;-68
2022/10/29 04:39:43;;;;;;;14.57;2.20;;;12.20;99.90;;;;;;4968821;28;20485;-70
2022/10/29 04:42:08;;;;;;;20.90;2.65;;;12.20;99.90;;;;;;4969510;28;20042;-68
2022/10/29 04:44:34;;;;;;;23.98;2.80;;;12.20;99.90;;;;;;4968964;28;20057;-68
2022/10/29 04:47:00;;;;;;;19.23;2.50;;;12.20;99.90;;;;;;4950999;28;20039;-68
2022/10/29 04:49:26;;;;;;;20.65;2.13;;;12.20;99.90;;;;;;4969381;28;20055;-70
2022/10/29 04:51:51;;;;;;;45.05;2.72;;;12.20;99.90;;;;;;4951300;28;20125;-68
2022/10/29 04:54:17;;;;;;;21.10;2.65;;;12.20;99.90;;;;;;4969512;28;20053;-69
2022/10/29 04:56:43;;;;;;;27.88;2.30;;;12.20;99.90;;;;;;4967900;28;20050;-68
2022/10/29 04:59:08;;;;;;;25.65;2.38;;;12.20;99.90;;;;;;4951254;28;20728;-68
2022/10/29 05:01:34;;;;;;;25.92;2.70;;;12.20;99.90;;;;;;4967511;28;20065;-82
2022/10/29 05:04:00;;;;;;;17.15;2.35;;;12.20;99.90;;;;;;4957525;28;20054;-83
2022/10/29 05:06:25;;;;;;;14.25;2.67;;;12.20;99.90;;;;;;4946820;28;20058;-70
2022/10/29 05:08:51;;;;;;;15.93;2.97;;;12.20;99.90;;;;;;4969461;28;20051;-68
2022/10/29 05:11:17;;;;;;;31.38;3.50;;;12.20;99.90;;;;;;4945563;28;20050;-69
2022/10/29 05:13:44;;;;;;;24.23;3.35;;;12.20;99.90;;;;;;4960264;28;20376;-72
2022/10/29 05:16:09;;;;;;;26.33;3.60;;;12.20;99.90;;;;;;4967990;28;20050;-68
2022/10/29 05:18:36;;;;;;;22.58;3.22;;;12.20;99.90;;;;;;4950599;28;20050;-70
2022/10/29 05:21:02;;;;;;;27.25;3.03;;;12.20;99.90;;;;;;4950484;28;20085;-69
2022/10/29 05:23:28;;;;;;;29.02;3.63;;;12.20;99.90;;;;;;4955319;28;20039;-70
2022/10/29 05:25:54;;;;;;;21.67;3.45;;;12.20;99.90;;;;;;4952287;28;20054;-69
2022/10/29 05:28:22;;;;;;;22.05;3.63;;;12.20;99.90;;;;;;4967580;28;20405;-69
2022/10/29 05:30:49;;;;;;;25.05;3.47;;;12.20;99.90;;;;;;4967624;28;20042;-68
2022/10/29 05:33:17;;;;;;;29.15;3.70;;;12.20;99.90;;;;;;4967007;28;20055;-68
2022/10/29 05:35:43;;;;;;;26.15;3.78;;;12.20;99.90;;;;;;4950120;28;20061;-68
2022/10/29 05:38:10;;;;;;;21.15;4.00;;;12.20;99.90;;;;;;4947485;28;20485;-69
2022/10/29 05:40:36;;;;;;;19.95;3.97;;;12.20;99.90;;;;;;4957300;28;20042;-68
2022/10/29 05:43:02;;;;;;;37.42;4.18;;;12.20;99.90;;;;;;4937438;28;20070;-69
2022/10/29 05:45:28;;;;;;;24.77;4.18;;;12.20;99.90;;;;;;4967488;28;20572;-69
2022/10/29 05:47:57;;;;;;;14.63;3.60;;;12.20;99.90;;;;;;4967569;28;20046;-68
2022/10/29 05:50:24;;;;;;;29.52;4.00;;;12.30;99.90;;;;;;4954847;28;20050;-71
2022/10/29 05:53:01;;;;;;;24.35;4.03;;;12.30;99.90;;;;;;4967360;28;20055;-69
2022/10/29 05:55:27;;;;;;;34.90;4.00;;;12.30;99.90;;;;;;4932053;28;20501;-69
2022/10/29 05:58:02;;;;;;;11.13;3.50;;;12.20;99.90;;;;;;4961725;28;20046;-70
2022/10/29 06:00:29;;;;;;;30.95;3.83;;;12.30;99.90;;;;;;4967093;28;20567;-69
2022/10/29 06:02:55;;;;;;;29.90;4.20;;;12.30;99.90;;;;;;4967847;28;20399;-70
2022/10/29 06:05:22;;;;;;;47.03;4.78;;;12.30;99.90;;;;;;4966765;28;20043;-69
2022/10/29 06:07:55;;;;;;;61.60;4.38;;;12.30;99.90;;;;;;4949924;28;20135;-69
2022/10/29 06:10:22;;;;;;;53.38;5.13;;;12.30;99.90;;;;;;4964245;28;20050;-69
2022/10/29 06:12:48;;;;;;;63.53;5.00;;;12.40;99.90;;;;;;4953748;28;20374;-69
2022/10/29 06:15:14;;;;;;;71.07;5.43;;;12.40;99.90;;;;;;4966254;28;20155;-69
2022/10/29 06:17:41;;;;;;;67.60;5.88;;;12.40;99.90;;;;;;4934447;28;20731;-77
2022/10/29 06:20:08;;;;;;;49.00;5.60;;;12.40;99.90;;;;;;4949996;28;20047;-70
2022/10/29 06:22:34;;;;;;;53.35;5.68;;;12.40;99.90;;;;;;4949579;28;20552;-88
2022/10/29 06:25:00;;;;;;;45.67;5.45;;;12.40;99.90;;;;;;4953149;28;20088;-70
2022/10/29 06:27:26;;;;;;;63.95;6.22;;;12.40;99.90;;;;;;4950618;28;20101;-70
2022/10/29 06:29:51;;;;;;;54.42;5.70;;;12.40;99.90;;;;;;4966916;28;20073;-70
2022/10/29 06:32:17;;;;;;;59.92;6.57;;;12.50;99.90;;;;;;4964517;28;20035;-70
2022/10/29 06:34:43;;;;;;;70.43;6.13;;;12.50;99.90;;;;;;4950238;28;20047;-71
2022/10/29 06:37:08;;;;;;;65.30;6.13;;;12.40;99.90;;;;;;4943486;28;20051;-71
2022/10/29 06:39:34;;;;;;;41.10;4.57;;;12.50;99.90;;;;;;4946338;28;20077;-70
2022/10/29 06:42:00;;;;;;;47.67;4.53;;;12.50;99.90;;;;;;4946310;28;20478;-70
2022/10/29 06:44:26;;;;;;;34.90;4.40;;;12.50;99.90;;;;;;4933716;28;20113;-70
2022/10/29 06:46:51;;;;;;;61.85;5.28;;;12.50;99.90;;;;;;4941334;28;20035;-71
2022/10/29 06:49:17;;;;;;;43.00;4.00;;;12.60;99.90;;;;;;4948939;28;20435;-70
2022/10/29 06:51:42;;;;;;;62.35;5.90;;;12.60;99.90;;;;;;4941747;28;20043;-70
2022/10/29 06:54:08;;;;;;;56.70;5.53;;;12.60;99.90;;;;;;4920252;29;20427;-70
2022/10/29 06:56:34;;;;;;;78.13;6.45;;;12.60;99.90;;;;;;4966397;28;20035;-74
2022/10/29 06:59:00;;;;;;;57.42;5.93;;;12.70;99.90;;;;;;4940805;28;20035;-71
2022/10/29 07:01:27;;;;;;;43.30;5.65;;;12.70;99.90;;;;;;4948390;28;20415;-70
2022/10/29 07:03:53;;;;;;;39.33;5.55;;;12.70;99.90;;;;;;4950234;28;20482;-71
2022/10/29 07:06:19;;;;;;;83.55;6.85;;;12.70;99.90;;;;;;4942718;28;20055;-70
2022/10/29 07:08:45;;;;;;;36.13;5.75;;;12.70;99.90;;;;;;4943216;28;20046;-73
2022/10/29 07:11:10;;;;;;;29.50;5.43;;;12.70;99.90;;;;;;4957234;28;20043;-70
2022/10/29 07:13:36;;;;;;;43.15;7.32;;;12.80;99.90;;;;;;4953949;28;20493;-71
2022/10/29 07:16:02;;;;;;;32.92;6.75;;;12.80;99.90;;;;;;4953016;28;20433;-71
2022/10/29 07:18:28;;;;;;;22.58;5.95;;;12.80;99.90;;;;;;4970293;28;20472;-70
2022/10/29 07:20:53;;;;;;;20.30;5.65;;;12.80;99.90;;;;;;4953433;28;20121;-71
2022/10/29 07:23:19;;;;;;;37.58;5.60;;;12.80;99.90;;;;;;4952562;28;20406;-71
2022/10/29 07:25:45;;;;;;;26.67;5.82;;;12.90;99.90;;;;;;4953579;28;20094;-70
2022/10/29 07:28:15;;;;;;;32.90;6.00;;;12.90;99.90;;;;;;4969553;28;20548;-70
2022/10/29 07:30:41;;;;;;;;;;;12.90;99.90;;;;;;4953922;28;20039;-70
2022/10/29 07:33:07;;;;;;;23.83;5.97;;;13.00;99.90;;;;;;4952528;28;19922;-70
2022/10/29 07:35:34;;;;;;;34.90;5.85;;;13.00;99.90;;;;;;4936870;28;20054;-72
2022/10/29 07:38:01;;;;;;;31.23;5.95;;;13.00;99.90;;;;;;4952991;28;20139;-80
2022/10/29 07:40:27;;;;;;;16.92;5.43;;;13.00;99.90;;;;;;4952487;28;20042;-70
2022/10/29 07:42:53;;;;;;;20.20;5.47;;;13.10;99.90;;;;;;4953373;28;20078;-69
2022/10/29 07:45:19;;;;;;;46.05;6.38;;;13.10;99.90;;;;;;4952052;28;20050;-69
2022/10/29 07:47:45;;;;;;;27.73;6.35;;;13.10;99.90;;;;;;4952942;28;20400;-69
2022/10/29 07:50:11;;;;;;;18.13;6.75;;;13.10;99.90;;;;;;4952127;28;20125;-70
2022/10/29 07:52:38;;;;;;;35.67;6.85;;;13.10;99.90;;;;;;4952745;28;20055;-69
2022/10/29 07:55:05;;;;;;;40.53;6.97;;;13.10;99.90;;;;;;4952391;28;20317;-69
2022/10/29 07:57:31;;;;;;;32.83;7.18;;;13.10;99.90;;;;;;4970170;28;20051;-69
2022/10/29 07:59:57;;;;;;;47.50;8.20;;;13.20;99.90;;;;;;4952141;28;20053;-70
2022/10/29 08:02:22;;;;;;;54.60;8.30;;;13.20;99.90;;;;;;4950930;28;20057;-70
2022/10/29 08:04:48;;;;;;;72.70;9.10;;;13.30;99.90;;;;;;4952222;28;20059;-69
2022/10/29 08:07:14;;;;;;;66.28;9.05;;;13.30;99.90;;;;;;4951626;28;20466;-70
2022/10/29 08:09:39;;;;;;;38.22;8.82;;;13.30;99.90;;;;;;4962889;28;20062;-70
2022/10/29 08:12:07;;;;;;;71.25;8.70;;;13.40;99.90;;;;;;4963179;28;20039;-69
2022/10/29 08:14:33;;;;;;;82.43;9.93;;;13.40;99.90;;;;;;4952187;28;20533;-69
2022/10/29 08:16:58;;;;;;;71.90;9.82;;;13.40;99.90;;;;;;4952288;28;20085;-81
2022/10/29 08:19:24;;;;;;;87.18;10.50;;;13.50;99.90;;;;;;4951254;28;20047;-70
2022/10/29 08:21:50;;;;;;;62.60;9.38;;;13.50;99.90;;;;;;4957079;28;20051;-71
2022/10/29 08:24:15;;;;;;;82.47;10.20;;;13.60;99.90;;;;;;4940425;28;20054;-85
2022/10/29 08:26:41;;;;;;;145.27;11.40;;;13.60;99.90;;;;;;4969550;28;20038;-70
2022/10/29 08:29:07;;;;;;;118.32;11.93;;;13.60;99.90;;;;;;4965672;28;20043;-70
2022/10/29 08:31:33;;;;;;;111.65;12.43;;;13.60;99.90;;;;;;4963230;28;20130;-70
2022/10/29 08:33:58;;;;;;;102.20;12.70;;;13.70;99.90;;;;;;4966668;28;20097;-70
2022/10/29 08:36:24;;;;;;;92.60;11.80;;;13.70;99.90;;;;;;4940264;28;20089;-70
2022/10/29 08:38:50;;;;;;;102.90;12.25;;;13.80;99.90;;;;;;4940878;28;20090;-70
2022/10/29 08:41:53;;;;;;;89.90;12.27;;;13.80;99.90;;;;;;4955073;28;20129;-74
2022/10/29 08:44:47;;;;;;;86.03;13.13;;;13.80;99.90;;;;;;4943549;28;20050;-70
2022/10/29 08:47:21;;;;;;;108.10;14.63;;;13.90;99.90;;;;;;4951865;28;20047;-70
2022/10/29 08:49:59;;;;;;;50.70;12.45;;;13.90;99.90;;;;;;4961480;28;20497;-69
2022/10/29 08:52:27;;;;;;;110.22;14.77;;;14.00;99.90;;;;;;4963611;28;20215;-69
2022/10/29 08:55:11;;;;;;;77.03;13.65;;;14.00;99.90;;;;;;4950894;28;20142;-70
2022/10/29 08:57:48;;;;;;;99.47;14.18;;;14.10;99.90;;;;;;4952107;28;20055;-69
2022/10/29 09:00:37;;;;;;;91.07;14.43;;;14.10;99.90;;;;;;4968425;28;20062;-70
2022/10/29 09:03:09;;;;;;;85.15;15.93;;;14.10;99.90;;;;;;4968497;28;20762;-69
2022/10/29 09:06:02;;;;;;;67.10;14.90;;;14.10;99.90;;;;;;4968692;28;20464;-72
2022/10/29 09:09:05;;;;;;;79.40;15.65;;;14.20;99.90;;;;;;4968578;28;20436;-69
2022/10/29 09:11:58;;;;;;;84.90;15.15;;;14.20;99.90;;;;;;4951155;28;20054;-75
2022/10/29 09:14:43;;;;;;;76.68;17.90;;;14.20;99.90;;;;;;4950368;28;20383;-71
2022/10/29 09:17:35;;;;;;;75.00;17.15;;;14.20;99.90;;;;;;4951147;28;20124;-70
2022/10/29 09:20:26;;;;;;;72.85;17.20;;;14.20;99.90;;;;;;4951064;28;20122;-69
2022/10/29 09:23:20;;;;;;;66.03;18.30;;;14.30;99.90;;;;;;4968738;28;20039;-70
2022/10/29 09:26:00;;;;;;;90.65;18.38;;;14.30;99.90;;;;;;4967643;28;20120;-83
2022/10/29 09:28:35;;;;;;;88.07;20.83;;;14.40;99.90;;;;;;4968295;28;20047;-81
2022/10/29 09:31:41;;;;;;;80.22;18.77;;;14.40;99.90;;;;;;4950940;28;20051;-70
2022/10/29 09:34:18;;;;;;;75.07;18.38;;;14.40;99.90;;;;;;4956400;28;20051;-69
2022/10/29 09:36:46;;;;;;;78.65;19.98;;;14.40;99.90;;;;;;4956443;28;20113;-71
2022/10/29 09:39:16;;;;;;;78.50;20.33;;;14.40;99.90;;;;;;4951063;28;20493;-79
2022/10/29 09:41:43;;;;;;;88.75;20.40;;;14.40;99.90;;;;;;4967859;28;20047;-70
2022/10/29 09:44:27;;;;;;;70.97;19.35;;;14.30;99.90;;;;;;4968671;28;20046;-70
2022/10/29 09:46:59;;;;;;;74.70;19.42;;;14.30;99.90;;;;;;4954705;28;20074;-69
2022/10/29 09:49:43;;;;;;;82.78;20.35;;;14.30;99.90;;;;;;4951606;28;20047;-77
2022/10/29 09:52:27;;;;;;;83.60;19.77;;;14.30;99.90;;;;;;4968440;28;20448;-69
2022/10/29 09:54:53;;;;;;;70.03;19.92;;;14.40;99.90;;;;;;4967274;28;20043;-70
2022/10/29 09:57:24;;;;;;;83.93;20.67;;;14.50;99.90;;;;;;4951148;28;20050;-70
2022/10/29 09:59:56;;;;;;;78.55;20.10;;;14.60;99.90;;;;;;4949338;28;20047;-73
2022/10/29 10:02:58;;;;;;;75.30;20.63;;;14.60;99.90;;;;;;4968199;28;20059;-70
2022/10/29 10:05:29;;;;;;;66.45;22.70;;;14.70;99.90;;;;;;4909471;28;20105;-70
2022/10/29 10:08:06;;;;;;;76.47;21.65;;;14.80;99.90;;;;;;4967956;28;20054;-82
2022/10/29 10:10:33;;;;;;;75.70;22.23;;;14.80;99.90;;;;;;4951918;28;20202;-88
2022/10/29 10:13:05;;;;;;;75.80;21.70;;;14.90;99.90;;;;;;4971288;28;20046;-77
2022/10/29 10:15:35;;;;;;;81.15;23.23;;;14.90;99.90;;;;;;4971383;28;20164;-70
2022/10/29 10:18:18;;;;;;;71.68;20.63;;;15.00;99.90;;;;;;4969185;28;20074;-70
2022/10/29 10:20:48;;;;;;;73.00;22.25;;;15.00;99.90;;;;;;4934952;28;20533;-70
2022/10/29 10:23:20;;;;;;;65.43;22.05;;;15.00;99.90;;;;;;4951266;28;20047;-70
2022/10/29 10:25:46;;;;;;;67.57;20.95;;;15.00;99.90;;;;;;4966207;28;20054;-70
2022/10/29 10:28:18;;;;;;;67.03;21.63;;;15.00;99.90;;;;;;4967694;28;20049;-70
2022/10/29 10:31:02;;;;;;;72.50;22.90;;;15.00;99.90;;;;;;4949085;28;20050;-70
2022/10/29 10:33:29;;;;;;;69.82;22.63;;;15.10;99.90;;;;;;4966577;28;20498;-70
2022/10/29 10:35:59;;;;;;;66.22;21.40;;;15.20;99.90;;;;;;4967464;28;20116;-70
2022/10/29 10:38:25;;;;;;;65.30;22.25;;;15.30;99.90;;;;;;4952525;28;20137;-73
2022/10/29 10:41:03;;;;;;;56.95;20.42;;;15.30;99.90;;;;;;4949718;28;20506;-71
2022/10/29 10:43:29;;;;;;;57.45;19.10;;;15.40;99.90;;;;;;4960667;28;20051;-70
2022/10/29 10:45:59;;;;;;;61.97;20.40;;;15.40;99.90;;;;;;4967417;28;20362;-70
2022/10/29 10:48:27;;;;;;;60.35;19.38;;;15.40;99.90;;;;;;4966831;28;20092;-71
2022/10/29 10:51:13;;;;;;;67.28;21.30;;;15.50;99.90;;;;;;4966725;28;20043;-70
2022/10/29 10:53:40;;;;;;;57.50;18.73;;;15.60;99.90;;;;;;4949809;28;20516;-70
2022/10/29 10:56:13;;;;;;;49.85;18.95;;;15.70;99.90;;;;;;4949316;28;20047;-70
2022/10/29 10:58:50;;;;;;;48.60;18.05;;;15.70;99.90;;;;;;4947895;28;20126;-70
2022/10/29 11:01:22;;;;;;;43.55;16.10;;;15.80;99.90;;;;;;4943269;28;20051;-70
2022/10/29 11:03:57;;;;;;;43.03;16.80;;;15.80;99.90;;;;;;4962840;28;20433;-70
2022/10/29 11:06:30;;;;;;;36.75;14.98;;;15.80;99.90;;;;;;4965675;28;20047;-70
2022/10/29 11:09:06;;;;;;;43.53;15.07;;;15.90;99.90;;;;;;4965084;28;20074;-70
2022/10/29 11:11:45;;;;;;;43.35;16.30;;;16.00;99.90;;;;;;4964971;28;20047;-71
2022/10/29 11:14:33;;;;;;;47.53;16.73;;;16.10;99.90;;;;;;4967058;28;20045;-70
2022/10/29 11:17:02;;;;;;;44.65;16.55;;;16.10;99.90;;;;;;4958350;28;20129;-69
2022/10/29 11:19:43;;;;;;;48.33;17.15;;;16.20;99.90;;;;;;4967423;28;20131;-83
2022/10/29 11:22:37;;;;;;;47.67;16.65;;;16.00;99.90;;;;;;4966350;28;20035;-70
2022/10/29 11:25:17;;;;;;;38.45;15.27;;;16.00;99.90;;;;;;4938444;28;20051;-70
2022/10/29 11:28:02;;;;;;;41.20;13.98;;;16.00;99.90;;;;;;4952808;28;20051;-70
2022/10/29 11:30:31;;;;;;;37.55;13.18;;;16.00;99.90;;;;;;4952536;28;20109;-69
2022/10/29 11:33:15;;;;;;;29.60;12.55;;;16.00;99.90;;;;;;4967259;28;20110;-70
2022/10/29 11:35:56;;;;;;;20.30;10.50;;;16.10;99.90;;;;;;4964088;28;20051;-69
2022/10/29 11:38:32;;;;;;;30.13;11.18;;;16.10;99.90;;;;;;4959059;28;20090;-77
2022/10/29 11:41:20;;;;;;;27.50;11.75;;;16.20;99.90;;;;;;4946629;28;20059;-70
2022/10/29 11:43:46;;;;;;;31.00;10.65;;;16.20;99.90;;;;;;4952222;28;20051;-70
2022/10/29 11:46:26;;;;;;;28.00;10.75;;;16.20;99.90;;;;;;4970229;28;20047;-74
2022/10/29 11:49:07;;;;;;;25.00;10.77;;;16.20;99.90;;;;;;4970010;28;20344;-70
2022/10/29 11:51:53;;;;;;;29.42;10.10;;;16.30;99.90;;;;;;4952585;28;20062;-70
2022/10/29 11:54:21;;;;;;;32.53;11.57;;;16.30;99.90;;;;;;4969789;28;20058;-70
2022/10/29 11:57:02;;;;;;;27.17;10.90;;;16.20;99.90;;;;;;4968447;28;20042;-83
2022/10/29 11:59:56;;;;;;;28.77;10.77;;;16.20;99.90;;;;;;4947638;28;20060;-70
2022/10/29 12:02:49;;;;;;;38.38;12.20;;;16.20;99.90;;;;;;4931087;29;20052;-70
2022/10/29 12:05:43;;;;;;;24.67;10.55;;;16.30;99.90;;;;;;4928231;29;20052;-70
2022/10/29 12:08:23;;;;;;;32.95;11.15;;;16.40;99.90;;;;;;4930206;29;20087;-69
2022/10/29 12:11:02;;;;;;;;;;;16.40;99.90;;;;;;4931626;29;20043;-70
2022/10/29 12:13:33;;;;;;;30.63;12.07;;;16.60;99.90;;;;;;4929518;29;20375;-70
2022/10/29 12:16:19;;;;;;;28.17;11.35;;;16.70;99.90;;;;;;4931969;29;20051;-70
2022/10/29 12:19:13;;;;;;;31.15;11.10;;;16.80;99.90;;;;;;4928912;29;20489;-70
2022/10/29 12:21:57;;;;;;;29.42;11.20;;;16.90;99.90;;;;;;4923517;29;20056;-70
2022/10/29 12:24:43;;;;;;;28.33;10.63;;;17.00;99.90;;;;;;4925878;29;20139;-70
2022/10/29 12:27:09;;;;;;;31.85;10.55;;;16.90;99.90;;;;;;4929135;29;20039;-70
2022/10/29 12:29:59;;;;;;;29.92;10.85;;;16.90;99.90;;;;;;4930209;29;20517;-70
2022/10/29 12:32:56;;;;;;;25.42;11.18;;;16.90;99.90;;;;;;4929307;29;20052;-70
2022/10/29 12:35:30;;;;;;;26.63;10.82;;;16.90;99.90;;;;;;4930473;29;20043;-84
2022/10/29 12:38:26;;;;;;;35.38;10.63;;;16.90;99.90;;;;;;4921290;29;20474;-71
2022/10/29 12:41:20;;;;;;;25.77;10.15;;;16.90;99.90;;;;;;4922341;29;20103;-70
2022/10/29 12:43:47;;;;;;;24.30;9.60;;;17.00;99.90;;;;;;4898362;29;20122;-70
2022/10/29 12:46:21;;;;;;;23.98;9.63;;;17.00;99.90;;;;;;4926453;29;20051;-70
2022/10/29 12:49:16;;;;;;;33.67;10.90;;;16.90;99.90;;;;;;4930248;29;20039;-70
2022/10/29 12:51:56;;;;;;;24.63;10.10;;;17.00;99.90;;;;;;4860239;29;20067;-71
2022/10/29 12:54:36;;;;;;;21.58;8.85;;;17.10;99.90;;;;;;4922874;29;20102;-70